Main page
METAR-TAF:

METAR-TAF

Airports :

Oscoda–Wurtsmith Airport

Oscoda, Michigan, United States

latitude: 44-27N, longitude: 083-22W, elevation: 193 m

Current weather observation

The report was made 42 minutes ago, at 19:35 UTC
Wind 9 kt from the East
Temperature 17°C
Humidity 36%
Pressure 1023 hPa
Visibility: 16.1 km
Clear sky

METAR: KOSC 151935Z AUTO 09009KT 10SM CLR 17/02 A3021 RMK AO2 T01740016

Time: 16:17 (20:17 UTC)


TAF: missing

Weather observations and forecasts of more than 4000 airports (METAR and TAF reports).

The available stations are represented by yellow and red dots on the map.

Hover mouse over dot to see the name of the station.

Then click to see weather observations and forecasts.

To change the map : click on the green buttons with a black cross to zoom in, on the green button with a dash to zoom out, or on the green arrows for adjacent maps.


METAR-TAF: